sensor_id;sensor_type;location;lat;lon;timestamp;temperature;humidity
17639;DHT22;8938;53.546;9.954;2023-12-14T00:00:21;8.30;99.90
17639;DHT22;8938;53.546;9.954;2023-12-14T00:02:46;8.30;99.90
17639;DHT22;8938;53.546;9.954;2023-12-14T00:05:12;8.40;99.90
17639;DHT22;8938;53.546;9.954;2023-12-14T00:07:37;8.50;99.90
17639;DHT22;8938;53.546;9.954;2023-12-14T00:10:03;8.60;99.90
17639;DHT22;8938;53.546;9.954;2023-12-14T00:12:30;8.60;99.90
17639;DHT22;8938;53.546;9.954;2023-12-14T00:14:56;8.60;99.90
17639;DHT22;8938;53.546;9.954;2023-12-14T00:17:21;8.50;99.90
17639;DHT22;8938;53.546;9.954;2023-12-14T00:19:47;8.60;99.90
17639;DHT22;8938;53.546;9.954;2023-12-14T00:22:12;8.70;99.90
17639;DHT22;8938;53.546;9.954;2023-12-14T00:24:38;8.60;99.90
17639;DHT22;8938;53.546;9.954;2023-12-14T00:27:03;8.60;99.90
17639;DHT22;8938;53.546;9.954;2023-12-14T00:29:29;8.60;99.90
17639;DHT22;8938;53.546;9.954;2023-12-14T00:31:54;8.60;99.90
17639;DHT22;8938;53.546;9.954;2023-12-14T00:34:20;8.60;99.90
17639;DHT22;8938;53.546;9.954;2023-12-14T00:36:46;8.70;99.90
17639;DHT22;8938;53.546;9.954;2023-12-14T00:39:11;8.80;99.90
17639;DHT22;8938;53.546;9.954;2023-12-14T00:41:37;8.80;99.90
17639;DHT22;8938;53.546;9.954;2023-12-14T00:44:03;8.80;99.90
17639;DHT22;8938;53.546;9.954;2023-12-14T00:46:28;8.90;99.90
17639;DHT22;8938;53.546;9.954;2023-12-14T00:48:54;8.90;99.90
17639;DHT22;8938;53.546;9.954;2023-12-14T00:51:19;9.00;99.90
17639;DHT22;8938;53.546;9.954;2023-12-14T00:53:45;9.00;99.90
17639;DHT22;8938;53.546;9.954;2023-12-14T00:56:10;9.00;99.90
17639;DHT22;8938;53.546;9.954;2023-12-14T00:58:36;9.10;99.90
17639;DHT22;8938;53.546;9.954;2023-12-14T01:01:01;9.00;99.90
17639;DHT22;8938;53.546;9.954;2023-12-14T01:03:27;9.00;99.90
17639;DHT22;8938;53.546;9.954;2023-12-14T01:05:52;8.90;99.90
17639;DHT22;8938;53.546;9.954;2023-12-14T01:08:18;8.80;99.90
17639;DHT22;8938;53.546;9.954;2023-12-14T01:10:44;8.80;99.90
17639;DHT22;8938;53.546;9.954;2023-12-14T01:13:09;8.80;99.90
17639;DHT22;8938;53.546;9.954;2023-12-14T01:15:35;8.80;99.90
17639;DHT22;8938;53.546;9.954;2023-12-14T01:18:00;8.80;99.90
17639;DHT22;8938;53.546;9.954;2023-12-14T01:20:26;8.80;99.90
17639;DHT22;8938;53.546;9.954;2023-12-14T01:22:52;8.70;99.90
17639;DHT22;8938;53.546;9.954;2023-12-14T01:25:18;8.80;99.90
17639;DHT22;8938;53.546;9.954;2023-12-14T01:27:43;8.80;99.90
17639;DHT22;8938;53.546;9.954;2023-12-14T01:30:09;8.80;99.90
17639;DHT22;8938;53.546;9.954;2023-12-14T01:32:35;8.80;99.90
17639;DHT22;8938;53.546;9.954;2023-12-14T01:35:00;8.70;99.90
17639;DHT22;8938;53.546;9.954;2023-12-14T01:37:27;8.70;99.90
17639;DHT22;8938;53.546;9.954;2023-12-14T01:39:53;8.70;99.90
17639;DHT22;8938;53.546;9.954;2023-12-14T01:42:18;8.70;99.90
17639;DHT22;8938;53.546;9.954;2023-12-14T01:44:44;8.80;99.90
17639;DHT22;8938;53.546;9.954;2023-12-14T01:47:09;8.80;99.90
17639;DHT22;8938;53.546;9.954;2023-12-14T01:49:35;8.80;99.90
17639;DHT22;8938;53.546;9.954;2023-12-14T01:52:01;8.80;99.90
17639;DHT22;8938;53.546;9.954;2023-12-14T01:54:26;8.80;99.90
17639;DHT22;8938;53.546;9.954;2023-12-14T01:56:52;8.90;99.90
17639;DHT22;8938;53.546;9.954;2023-12-14T01:59:19;8.90;99.90
17639;DHT22;8938;53.546;9.954;2023-12-14T02:01:46;8.90;99.90
17639;DHT22;8938;53.546;9.954;2023-12-14T02:04:13;8.80;99.90
17639;DHT22;8938;53.546;9.954;2023-12-14T02:06:39;8.80;99.90
17639;DHT22;8938;53.546;9.954;2023-12-14T02:09:05;8.90;99.90
17639;DHT22;8938;53.546;9.954;2023-12-14T02:11:31;8.90;99.90
17639;DHT22;8938;53.546;9.954;2023-12-14T02:13:56;8.90;99.90
17639;DHT22;8938;53.546;9.954;2023-12-14T02:16:22;8.90;99.90
17639;DHT22;8938;53.546;9.954;2023-12-14T02:18:47;8.80;99.90
17639;DHT22;8938;53.546;9.954;2023-12-14T02:21:13;8.80;99.90
17639;DHT22;8938;53.546;9.954;2023-12-14T02:23:45;8.90;99.90
17639;DHT22;8938;53.546;9.954;2023-12-14T02:26:12;8.90;99.90
17639;DHT22;8938;53.546;9.954;2023-12-14T02:28:37;8.70;99.90
17639;DHT22;8938;53.546;9.954;2023-12-14T02:31:03;8.80;99.90
17639;DHT22;8938;53.546;9.954;2023-12-14T02:33:29;8.80;99.90
17639;DHT22;8938;53.546;9.954;2023-12-14T02:35:54;8.80;99.90
17639;DHT22;8938;53.546;9.954;2023-12-14T02:38:20;8.90;99.90
17639;DHT22;8938;53.546;9.954;2023-12-14T02:40:46;8.80;99.90
17639;DHT22;8938;53.546;9.954;2023-12-14T02:43:12;8.80;99.90
17639;DHT22;8938;53.546;9.954;2023-12-14T02:45:38;8.90;99.90
17639;DHT22;8938;53.546;9.954;2023-12-14T02:48:03;8.90;99.90
17639;DHT22;8938;53.546;9.954;2023-12-14T02:50:29;8.90;99.90
17639;DHT22;8938;53.546;9.954;2023-12-14T02:52:55;8.90;99.90
17639;DHT22;8938;53.546;9.954;2023-12-14T02:55:21;8.90;99.90
17639;DHT22;8938;53.546;9.954;2023-12-14T02:57:46;9.00;99.90
17639;DHT22;8938;53.546;9.954;2023-12-14T03:00:12;9.00;99.90
17639;DHT22;8938;53.546;9.954;2023-12-14T03:02:38;8.90;99.90
17639;DHT22;8938;53.546;9.954;2023-12-14T03:05:04;8.90;99.90
17639;DHT22;8938;53.546;9.954;2023-12-14T03:07:29;8.80;99.90
17639;DHT22;8938;53.546;9.954;2023-12-14T03:09:55;8.80;99.90
17639;DHT22;8938;53.546;9.954;2023-12-14T03:12:21;8.90;99.90
17639;DHT22;8938;53.546;9.954;2023-12-14T03:14:46;8.80;99.90
17639;DHT22;8938;53.546;9.954;2023-12-14T03:17:12;8.90;99.90
17639;DHT22;8938;53.546;9.954;2023-12-14T03:19:41;8.90;99.90
17639;DHT22;8938;53.546;9.954;2023-12-14T03:22:08;9.00;99.90
17639;DHT22;8938;53.546;9.954;2023-12-14T03:24:35;8.90;99.90
17639;DHT22;8938;53.546;9.954;2023-12-14T03:27:01;9.00;99.90
17639;DHT22;8938;53.546;9.954;2023-12-14T03:29:27;9.00;99.90
17639;DHT22;8938;53.546;9.954;2023-12-14T03:31:53;9.00;99.90
17639;DHT22;8938;53.546;9.954;2023-12-14T03:34:18;9.10;99.90
17639;DHT22;8938;53.546;9.954;2023-12-14T03:36:44;9.10;99.90
17639;DHT22;8938;53.546;9.954;2023-12-14T03:39:09;9.10;99.90
17639;DHT22;8938;53.546;9.954;2023-12-14T03:41:35;9.00;99.90
17639;DHT22;8938;53.546;9.954;2023-12-14T03:44:01;9.00;99.90
17639;DHT22;8938;53.546;9.954;2023-12-14T03:46:26;9.00;99.90
17639;DHT22;8938;53.546;9.954;2023-12-14T03:48:52;9.00;99.90
17639;DHT22;8938;53.546;9.954;2023-12-14T03:51:19;8.80;99.90
17639;DHT22;8938;53.546;9.954;2023-12-14T03:53:44;8.90;99.90
17639;DHT22;8938;53.546;9.954;2023-12-14T03:56:10;9.00;99.90
17639;DHT22;8938;53.546;9.954;2023-12-14T03:58:36;9.00;99.90
17639;DHT22;8938;53.546;9.954;2023-12-14T04:01:01;8.90;99.90
17639;DHT22;8938;53.546;9.954;2023-12-14T04:03:27;8.80;99.90
17639;DHT22;8938;53.546;9.954;2023-12-14T04:05:52;8.80;99.90
17639;DHT22;8938;53.546;9.954;2023-12-14T04:08:18;8.80;99.90
17639;DHT22;8938;53.546;9.954;2023-12-14T04:10:43;8.80;99.90
17639;DHT22;8938;53.546;9.954;2023-12-14T04:13:09;8.70;99.90
17639;DHT22;8938;53.546;9.954;2023-12-14T04:15:34;8.80;99.90
17639;DHT22;8938;53.546;9.954;2023-12-14T04:18:00;8.80;99.90
17639;DHT22;8938;53.546;9.954;2023-12-14T04:20:25;8.80;99.90
17639;DHT22;8938;53.546;9.954;2023-12-14T04:22:51;8.80;99.90
17639;DHT22;8938;53.546;9.954;2023-12-14T04:25:16;8.60;99.90
17639;DHT22;8938;53.546;9.954;2023-12-14T04:27:42;8.70;99.90
17639;DHT22;8938;53.546;9.954;2023-12-14T04:30:08;8.80;99.90
17639;DHT22;8938;53.546;9.954;2023-12-14T04:32:37;8.80;99.90
17639;DHT22;8938;53.546;9.954;2023-12-14T04:35:04;8.80;99.90
17639;DHT22;8938;53.546;9.954;2023-12-14T04:37:30;8.90;99.90
17639;DHT22;8938;53.546;9.954;2023-12-14T04:39:57;8.80;99.90
17639;DHT22;8938;53.546;9.954;2023-12-14T04:42:22;8.90;99.90
17639;DHT22;8938;53.546;9.954;2023-12-14T04:44:48;9.00;99.90
17639;DHT22;8938;53.546;9.954;2023-12-14T04:47:13;9.00;99.90
17639;DHT22;8938;53.546;9.954;2023-12-14T04:49:39;9.00;99.90
17639;DHT22;8938;53.546;9.954;2023-12-14T04:52:05;8.90;99.90
17639;DHT22;8938;53.546;9.954;2023-12-14T04:54:31;8.80;99.90
17639;DHT22;8938;53.546;9.954;2023-12-14T04:56:56;8.90;99.90
17639;DHT22;8938;53.546;9.954;2023-12-14T04:59:22;9.00;99.90
17639;DHT22;8938;53.546;9.954;2023-12-14T05:01:47;9.00;99.90
17639;DHT22;8938;53.546;9.954;2023-12-14T05:04:13;9.00;99.90
17639;DHT22;8938;53.546;9.954;2023-12-14T05:06:39;8.90;99.90
17639;DHT22;8938;53.546;9.954;2023-12-14T05:09:04;9.00;99.90
17639;DHT22;8938;53.546;9.954;2023-12-14T05:11:32;9.00;99.90
17639;DHT22;8938;53.546;9.954;2023-12-14T05:13:57;9.00;99.90
17639;DHT22;8938;53.546;9.954;2023-12-14T05:16:23;9.10;99.90
17639;DHT22;8938;53.546;9.954;2023-12-14T05:18:53;9.10;99.90
17639;DHT22;8938;53.546;9.954;2023-12-14T05:21:19;9.20;99.90
17639;DHT22;8938;53.546;9.954;2023-12-14T05:23:44;9.20;99.90
17639;DHT22;8938;53.546;9.954;2023-12-14T05:26:10;9.20;99.90
17639;DHT22;8938;53.546;9.954;2023-12-14T05:28:35;9.20;99.90
17639;DHT22;8938;53.546;9.954;2023-12-14T05:31:01;9.20;99.90
17639;DHT22;8938;53.546;9.954;2023-12-14T05:33:28;9.20;99.90
17639;DHT22;8938;53.546;9.954;2023-12-14T05:35:54;9.30;99.90
17639;DHT22;8938;53.546;9.954;2023-12-14T05:38:19;9.30;99.90
17639;DHT22;8938;53.546;9.954;2023-12-14T05:40:45;9.30;99.90
17639;DHT22;8938;53.546;9.954;2023-12-14T05:43:10;9.20;99.90
17639;DHT22;8938;53.546;9.954;2023-12-14T05:45:36;9.20;99.90
17639;DHT22;8938;53.546;9.954;2023-12-14T05:48:02;9.20;99.90
17639;DHT22;8938;53.546;9.954;2023-12-14T05:50:30;9.20;99.90
17639;DHT22;8938;53.546;9.954;2023-12-14T05:52:56;9.20;99.90
17639;DHT22;8938;53.546;9.954;2023-12-14T05:55:21;9.20;99.90
17639;DHT22;8938;53.546;9.954;2023-12-14T05:57:48;9.20;99.90
17639;DHT22;8938;53.546;9.954;2023-12-14T06:00:13;9.10;99.90
17639;DHT22;8938;53.546;9.954;2023-12-14T06:02:39;9.10;99.90
17639;DHT22;8938;53.546;9.954;2023-12-14T06:05:06;9.20;99.90
17639;DHT22;8938;53.546;9.954;2023-12-14T06:07:32;9.20;99.90
17639;DHT22;8938;53.546;9.954;2023-12-14T06:09:58;9.20;99.90
17639;DHT22;8938;53.546;9.954;2023-12-14T06:12:23;9.20;99.90
17639;DHT22;8938;53.546;9.954;2023-12-14T06:14:49;9.10;99.90
17639;DHT22;8938;53.546;9.954;2023-12-14T06:17:15;9.10;99.90
17639;DHT22;8938;53.546;9.954;2023-12-14T06:19:41;9.10;99.90
17639;DHT22;8938;53.546;9.954;2023-12-14T06:22:07;9.20;99.90
17639;DHT22;8938;53.546;9.954;2023-12-14T06:24:32;9.20;99.90
17639;DHT22;8938;53.546;9.954;2023-12-14T06:26:58;9.30;99.90
17639;DHT22;8938;53.546;9.954;2023-12-14T06:29:23;9.30;99.90
17639;DHT22;8938;53.546;9.954;2023-12-14T06:31:49;9.30;99.90
17639;DHT22;8938;53.546;9.954;2023-12-14T06:34:15;9.30;99.90
17639;DHT22;8938;53.546;9.954;2023-12-14T06:36:45;9.30;99.90
17639;DHT22;8938;53.546;9.954;2023-12-14T06:39:10;9.30;99.90
17639;DHT22;8938;53.546;9.954;2023-12-14T06:41:36;9.40;99.90
17639;DHT22;8938;53.546;9.954;2023-12-14T06:44:02;9.40;99.90
17639;DHT22;8938;53.546;9.954;2023-12-14T06:46:28;9.30;99.90
17639;DHT22;8938;53.546;9.954;2023-12-14T06:48:53;9.30;99.90
17639;DHT22;8938;53.546;9.954;2023-12-14T06:51:20;9.20;99.90
17639;DHT22;8938;53.546;9.954;2023-12-14T06:53:46;9.20;99.90
17639;DHT22;8938;53.546;9.954;2023-12-14T06:56:12;9.30;99.90
17639;DHT22;8938;53.546;9.954;2023-12-14T06:58:43;9.30;99.90
17639;DHT22;8938;53.546;9.954;2023-12-14T07:01:16;9.20;99.90
17639;DHT22;8938;53.546;9.954;2023-12-14T07:03:42;9.20;99.90
17639;DHT22;8938;53.546;9.954;2023-12-14T07:06:12;9.20;99.90
17639;DHT22;8938;53.546;9.954;2023-12-14T07:08:39;9.20;99.90
17639;DHT22;8938;53.546;9.954;2023-12-14T07:11:05;9.20;99.90
17639;DHT22;8938;53.546;9.954;2023-12-14T07:13:30;9.20;99.90
17639;DHT22;8938;53.546;9.954;2023-12-14T07:15:56;9.20;99.90
17639;DHT22;8938;53.546;9.954;2023-12-14T07:18:21;9.10;99.90
17639;DHT22;8938;53.546;9.954;2023-12-14T07:20:47;9.10;99.90
17639;DHT22;8938;53.546;9.954;2023-12-14T07:23:12;9.20;99.90
17639;DHT22;8938;53.546;9.954;2023-12-14T07:25:38;9.20;99.90
17639;DHT22;8938;53.546;9.954;2023-12-14T07:28:04;9.20;99.90
17639;DHT22;8938;53.546;9.954;2023-12-14T07:30:29;9.30;99.90
17639;DHT22;8938;53.546;9.954;2023-12-14T07:32:55;9.30;99.90
17639;DHT22;8938;53.546;9.954;2023-12-14T07:35:20;9.30;99.90
17639;DHT22;8938;53.546;9.954;2023-12-14T07:37:46;9.30;99.90
17639;DHT22;8938;53.546;9.954;2023-12-14T07:40:11;9.40;99.90
17639;DHT22;8938;53.546;9.954;2023-12-14T07:42:37;9.40;99.90
17639;DHT22;8938;53.546;9.954;2023-12-14T07:45:03;9.40;99.90
17639;DHT22;8938;53.546;9.954;2023-12-14T07:47:29;9.40;99.90
17639;DHT22;8938;53.546;9.954;2023-12-14T07:49:55;9.50;99.90
17639;DHT22;8938;53.546;9.954;2023-12-14T07:52:20;9.60;99.90
17639;DHT22;8938;53.546;9.954;2023-12-14T07:54:46;9.60;99.90
17639;DHT22;8938;53.546;9.954;2023-12-14T07:57:12;9.60;99.90
17639;DHT22;8938;53.546;9.954;2023-12-14T07:59:37;9.60;99.90
17639;DHT22;8938;53.546;9.954;2023-12-14T08:02:03;9.40;99.90
17639;DHT22;8938;53.546;9.954;2023-12-14T08:04:28;9.40;99.90
17639;DHT22;8938;53.546;9.954;2023-12-14T08:06:54;9.40;99.90
17639;DHT22;8938;53.546;9.954;2023-12-14T08:09:19;9.30;99.90
17639;DHT22;8938;53.546;9.954;2023-12-14T08:11:45;9.30;99.90
17639;DHT22;8938;53.546;9.954;2023-12-14T08:14:10;9.30;99.90
17639;DHT22;8938;53.546;9.954;2023-12-14T08:16:36;9.30;99.90
17639;DHT22;8938;53.546;9.954;2023-12-14T08:19:01;9.30;99.90
17639;DHT22;8938;53.546;9.954;2023-12-14T08:21:27;9.30;99.90
17639;DHT22;8938;53.546;9.954;2023-12-14T08:23:52;9.20;99.90
17639;DHT22;8938;53.546;9.954;2023-12-14T08:26:18;9.20;99.90
17639;DHT22;8938;53.546;9.954;2023-12-14T08:28:44;9.30;99.90
17639;DHT22;8938;53.546;9.954;2023-12-14T08:31:09;9.20;99.90
17639;DHT22;8938;53.546;9.954;2023-12-14T08:33:37;9.40;99.90
17639;DHT22;8938;53.546;9.954;2023-12-14T08:36:03;9.10;99.90
17639;DHT22;8938;53.546;9.954;2023-12-14T08:38:28;9.20;99.90
17639;DHT22;8938;53.546;9.954;2023-12-14T08:40:54;9.30;99.90
17639;DHT22;8938;53.546;9.954;2023-12-14T08:43:19;9.30;99.90
17639;DHT22;8938;53.546;9.954;2023-12-14T08:45:45;9.40;99.90
17639;DHT22;8938;53.546;9.954;2023-12-14T08:48:10;9.50;99.90
17639;DHT22;8938;53.546;9.954;2023-12-14T08:50:36;9.50;99.90
17639;DHT22;8938;53.546;9.954;2023-12-14T08:53:02;9.40;99.90
17639;DHT22;8938;53.546;9.954;2023-12-14T08:55:29;9.40;99.90
17639;DHT22;8938;53.546;9.954;2023-12-14T08:57:55;9.40;99.90
17639;DHT22;8938;53.546;9.954;2023-12-14T09:00:21;9.40;99.90
17639;DHT22;8938;53.546;9.954;2023-12-14T09:02:47;9.40;99.90
17639;DHT22;8938;53.546;9.954;2023-12-14T09:05:13;9.40;99.90
17639;DHT22;8938;53.546;9.954;2023-12-14T09:07:39;9.50;99.90
17639;DHT22;8938;53.546;9.954;2023-12-14T09:10:05;9.70;99.90
17639;DHT22;8938;53.546;9.954;2023-12-14T09:12:32;9.80;99.90
17639;DHT22;8938;53.546;9.954;2023-12-14T09:14:58;9.80;99.90
17639;DHT22;8938;53.546;9.954;2023-12-14T09:17:24;9.70;99.90
17639;DHT22;8938;53.546;9.954;2023-12-14T09:19:50;9.70;99.90
17639;DHT22;8938;53.546;9.954;2023-12-14T09:22:15;9.60;99.90
17639;DHT22;8938;53.546;9.954;2023-12-14T09:24:41;9.60;99.90
17639;DHT22;8938;53.546;9.954;2023-12-14T09:27:06;9.50;99.90
17639;DHT22;8938;53.546;9.954;2023-12-14T09:29:32;9.50;99.90
17639;DHT22;8938;53.546;9.954;2023-12-14T09:31:57;9.60;99.90
17639;DHT22;8938;53.546;9.954;2023-12-14T09:34:23;9.80;99.90
17639;DHT22;8938;53.546;9.954;2023-12-14T09:36:49;9.90;99.90
17639;DHT22;8938;53.546;9.954;2023-12-14T09:39:15;9.90;99.90
17639;DHT22;8938;53.546;9.954;2023-12-14T09:41:40;9.90;99.90
17639;DHT22;8938;53.546;9.954;2023-12-14T09:44:06;9.80;99.90
17639;DHT22;8938;53.546;9.954;2023-12-14T09:46:34;9.80;99.90
17639;DHT22;8938;53.546;9.954;2023-12-14T09:49:02;9.70;99.90
17639;DHT22;8938;53.546;9.954;2023-12-14T09:51:30;9.60;99.90
17639;DHT22;8938;53.546;9.954;2023-12-14T09:53:56;9.70;99.90
17639;DHT22;8938;53.546;9.954;2023-12-14T09:56:24;9.60;99.90
17639;DHT22;8938;53.546;9.954;2023-12-14T09:58:50;9.60;99.90
17639;DHT22;8938;53.546;9.954;2023-12-14T10:01:27;9.60;99.90
17639;DHT22;8938;53.546;9.954;2023-12-14T10:04:12;9.60;99.90
17639;DHT22;8938;53.546;9.954;2023-12-14T10:06:39;9.60;99.90
17639;DHT22;8938;53.546;9.954;2023-12-14T10:09:05;9.60;99.90
17639;DHT22;8938;53.546;9.954;2023-12-14T10:11:35;9.50;99.90
17639;DHT22;8938;53.546;9.954;2023-12-14T10:14:02;9.50;99.90
17639;DHT22;8938;53.546;9.954;2023-12-14T10:16:31;9.50;99.90
17639;DHT22;8938;53.546;9.954;2023-12-14T10:18:57;9.60;99.90
17639;DHT22;8938;53.546;9.954;2023-12-14T10:21:27;9.60;99.90
17639;DHT22;8938;53.546;9.954;2023-12-14T10:23:56;9.60;99.90
17639;DHT22;8938;53.546;9.954;2023-12-14T10:26:23;9.60;99.90
17639;DHT22;8938;53.546;9.954;2023-12-14T10:28:50;9.60;99.90
17639;DHT22;8938;53.546;9.954;2023-12-14T10:31:18;9.60;99.90
17639;DHT22;8938;53.546;9.954;2023-12-14T10:33:45;9.70;99.90
17639;DHT22;8938;53.546;9.954;2023-12-14T10:36:13;9.80;99.90
17639;DHT22;8938;53.546;9.954;2023-12-14T10:38:39;10.00;99.90
17639;DHT22;8938;53.546;9.954;2023-12-14T10:41:05;10.00;99.90
17639;DHT22;8938;53.546;9.954;2023-12-14T10:43:37;10.10;99.90
17639;DHT22;8938;53.546;9.954;2023-12-14T10:46:05;10.20;99.90
17639;DHT22;8938;53.546;9.954;2023-12-14T10:48:31;10.10;99.90
17639;DHT22;8938;53.546;9.954;2023-12-14T10:50:59;10.00;99.90
17639;DHT22;8938;53.546;9.954;2023-12-14T10:53:26;9.90;99.90
17639;DHT22;8938;53.546;9.954;2023-12-14T10:55:53;9.80;99.90
17639;DHT22;8938;53.546;9.954;2023-12-14T10:58:19;9.80;99.90
17639;DHT22;8938;53.546;9.954;2023-12-14T11:01:00;9.80;99.90
17639;DHT22;8938;53.546;9.954;2023-12-14T11:03:27;9.90;99.90
17639;DHT22;8938;53.546;9.954;2023-12-14T11:05:57;10.00;99.90
17639;DHT22;8938;53.546;9.954;2023-12-14T11:08:25;10.00;99.90
17639;DHT22;8938;53.546;9.954;2023-12-14T11:11:00;10.00;99.90
17639;DHT22;8938;53.546;9.954;2023-12-14T11:13:34;10.00;99.90
17639;DHT22;8938;53.546;9.954;2023-12-14T11:16:01;10.00;99.90
17639;DHT22;8938;53.546;9.954;2023-12-14T11:18:27;10.10;99.90
17639;DHT22;8938;53.546;9.954;2023-12-14T11:20:59;10.20;99.90
17639;DHT22;8938;53.546;9.954;2023-12-14T11:25:53;10.20;99.90
17639;DHT22;8938;53.546;9.954;2023-12-14T11:28:19;10.20;99.90
17639;DHT22;8938;53.546;9.954;2023-12-14T11:30:46;10.00;99.90
17639;DHT22;8938;53.546;9.954;2023-12-14T11:33:16;9.90;99.90
17639;DHT22;8938;53.546;9.954;2023-12-14T11:35:41;9.80;99.90
17639;DHT22;8938;53.546;9.954;2023-12-14T11:38:07;9.80;99.90
17639;DHT22;8938;53.546;9.954;2023-12-14T11:40:38;9.80;99.90
17639;DHT22;8938;53.546;9.954;2023-12-14T11:43:04;9.80;99.90
17639;DHT22;8938;53.546;9.954;2023-12-14T11:45:40;9.70;99.90
17639;DHT22;8938;53.546;9.954;2023-12-14T11:48:08;9.70;99.90
17639;DHT22;8938;53.546;9.954;2023-12-14T11:50:39;9.70;99.90
17639;DHT22;8938;53.546;9.954;2023-12-14T11:53:05;9.60;99.90
17639;DHT22;8938;53.546;9.954;2023-12-14T11:55:33;9.60;99.90
17639;DHT22;8938;53.546;9.954;2023-12-14T11:57:59;9.80;99.90
17639;DHT22;8938;53.546;9.954;2023-12-14T12:00:29;9.90;99.90
17639;DHT22;8938;53.546;9.954;2023-12-14T12:03:14;10.00;99.90
17639;DHT22;8938;53.546;9.954;2023-12-14T12:05:43;10.10;99.90
17639;DHT22;8938;53.546;9.954;2023-12-14T12:08:09;10.20;99.90
17639;DHT22;8938;53.546;9.954;2023-12-14T12:10:37;10.20;99.90
17639;DHT22;8938;53.546;9.954;2023-12-14T12:13:04;10.20;99.90
17639;DHT22;8938;53.546;9.954;2023-12-14T12:15:32;10.20;99.90
17639;DHT22;8938;53.546;9.954;2023-12-14T12:17:57;10.20;99.90
17639;DHT22;8938;53.546;9.954;2023-12-14T12:20:23;10.20;99.90
17639;DHT22;8938;53.546;9.954;2023-12-14T12:22:51;10.20;99.90
17639;DHT22;8938;53.546;9.954;2023-12-14T12:25:16;10.20;99.90
17639;DHT22;8938;53.546;9.954;2023-12-14T12:27:43;10.20;99.90
17639;DHT22;8938;53.546;9.954;2023-12-14T12:30:10;10.20;99.90
17639;DHT22;8938;53.546;9.954;2023-12-14T12:32:35;10.20;99.90
17639;DHT22;8938;53.546;9.954;2023-12-14T12:35:01;10.30;99.90
17639;DHT22;8938;53.546;9.954;2023-12-14T12:37:26;10.20;99.90
17639;DHT22;8938;53.546;9.954;2023-12-14T12:39:52;10.20;99.90
17639;DHT22;8938;53.546;9.954;2023-12-14T12:42:17;10.20;99.90
17639;DHT22;8938;53.546;9.954;2023-12-14T12:44:43;10.20;99.90
17639;DHT22;8938;53.546;9.954;2023-12-14T12:47:09;10.50;99.90
17639;DHT22;8938;53.546;9.954;2023-12-14T12:49:34;10.40;99.90
17639;DHT22;8938;53.546;9.954;2023-12-14T12:52:00;10.40;99.90
17639;DHT22;8938;53.546;9.954;2023-12-14T12:54:25;10.20;99.90
17639;DHT22;8938;53.546;9.954;2023-12-14T12:56:51;10.10;99.90
17639;DHT22;8938;53.546;9.954;2023-12-14T12:59:16;10.00;99.90
17639;DHT22;8938;53.546;9.954;2023-12-14T13:01:42;10.00;99.90
17639;DHT22;8938;53.546;9.954;2023-12-14T13:04:22;9.90;99.90
17639;DHT22;8938;53.546;9.954;2023-12-14T13:06:49;9.90;99.90
17639;DHT22;8938;53.546;9.954;2023-12-14T13:09:18;9.90;99.90
17639;DHT22;8938;53.546;9.954;2023-12-14T13:11:45;9.90;99.90
17639;DHT22;8938;53.546;9.954;2023-12-14T13:14:11;9.90;99.90
17639;DHT22;8938;53.546;9.954;2023-12-14T13:16:38;9.90;99.90
17639;DHT22;8938;53.546;9.954;2023-12-14T13:19:04;10.00;99.90
17639;DHT22;8938;53.546;9.954;2023-12-14T13:21:34;9.90;99.90
17639;DHT22;8938;53.546;9.954;2023-12-14T13:24:01;10.00;99.90
17639;DHT22;8938;53.546;9.954;2023-12-14T13:26:27;9.90;99.90
17639;DHT22;8938;53.546;9.954;2023-12-14T13:28:52;10.00;99.90
17639;DHT22;8938;53.546;9.954;2023-12-14T13:31:18;9.90;99.90
17639;DHT22;8938;53.546;9.954;2023-12-14T13:33:47;9.90;99.90
17639;DHT22;8938;53.546;9.954;2023-12-14T13:36:13;9.90;99.90
17639;DHT22;8938;53.546;9.954;2023-12-14T13:38:40;9.80;99.90
17639;DHT22;8938;53.546;9.954;2023-12-14T13:41:07;9.80;99.90
17639;DHT22;8938;53.546;9.954;2023-12-14T13:43:33;9.80;99.90
17639;DHT22;8938;53.546;9.954;2023-12-14T13:45:58;9.70;99.90
17639;DHT22;8938;53.546;9.954;2023-12-14T13:48:25;9.60;99.90
17639;DHT22;8938;53.546;9.954;2023-12-14T13:50:50;9.70;99.90
17639;DHT22;8938;53.546;9.954;2023-12-14T13:53:16;9.70;99.90
17639;DHT22;8938;53.546;9.954;2023-12-14T13:55:41;9.60;99.90
17639;DHT22;8938;53.546;9.954;2023-12-14T13:58:07;9.50;99.90
17639;DHT22;8938;53.546;9.954;2023-12-14T14:00:33;9.60;99.90
17639;DHT22;8938;53.546;9.954;2023-12-14T14:03:00;9.50;99.90
17639;DHT22;8938;53.546;9.954;2023-12-14T14:05:25;9.60;99.90
17639;DHT22;8938;53.546;9.954;2023-12-14T14:07:51;9.70;99.90
17639;DHT22;8938;53.546;9.954;2023-12-14T14:10:17;9.80;99.90
17639;DHT22;8938;53.546;9.954;2023-12-14T14:12:43;9.90;99.90
17639;DHT22;8938;53.546;9.954;2023-12-14T14:15:09;9.90;99.90
17639;DHT22;8938;53.546;9.954;2023-12-14T14:17:35;9.80;99.90
17639;DHT22;8938;53.546;9.954;2023-12-14T14:20:01;9.70;99.90
17639;DHT22;8938;53.546;9.954;2023-12-14T14:22:27;9.70;99.90
17639;DHT22;8938;53.546;9.954;2023-12-14T14:24:52;9.80;99.90
17639;DHT22;8938;53.546;9.954;2023-12-14T14:27:18;9.90;99.90
17639;DHT22;8938;53.546;9.954;2023-12-14T14:29:43;9.90;99.90
17639;DHT22;8938;53.546;9.954;2023-12-14T14:32:09;9.80;99.90
17639;DHT22;8938;53.546;9.954;2023-12-14T14:34:34;9.90;99.90
17639;DHT22;8938;53.546;9.954;2023-12-14T14:37:01;9.80;99.90
17639;DHT22;8938;53.546;9.954;2023-12-14T14:39:26;9.70;99.90
17639;DHT22;8938;53.546;9.954;2023-12-14T14:41:53;9.70;99.90
17639;DHT22;8938;53.546;9.954;2023-12-14T14:44:18;9.60;99.90
17639;DHT22;8938;53.546;9.954;2023-12-14T14:46:44;9.60;99.90
17639;DHT22;8938;53.546;9.954;2023-12-14T14:49:10;9.70;99.90
17639;DHT22;8938;53.546;9.954;2023-12-14T14:51:35;9.70;99.90
17639;DHT22;8938;53.546;9.954;2023-12-14T14:54:01;9.70;99.90
17639;DHT22;8938;53.546;9.954;2023-12-14T14:56:26;9.70;99.90
17639;DHT22;8938;53.546;9.954;2023-12-14T14:58:52;9.80;99.90
17639;DHT22;8938;53.546;9.954;2023-12-14T15:01:17;10.00;99.90
17639;DHT22;8938;53.546;9.954;2023-12-14T15:03:44;10.00;99.90
17639;DHT22;8938;53.546;9.954;2023-12-14T15:06:09;10.10;99.90
17639;DHT22;8938;53.546;9.954;2023-12-14T15:08:35;10.20;99.90
17639;DHT22;8938;53.546;9.954;2023-12-14T15:11:00;10.20;99.90
17639;DHT22;8938;53.546;9.954;2023-12-14T15:13:26;10.30;99.90
17639;DHT22;8938;53.546;9.954;2023-12-14T15:15:53;10.30;99.90
17639;DHT22;8938;53.546;9.954;2023-12-14T15:18:20;10.30;99.90
17639;DHT22;8938;53.546;9.954;2023-12-14T15:20:45;10.30;99.90
17639;DHT22;8938;53.546;9.954;2023-12-14T15:23:14;10.20;99.90
17639;DHT22;8938;53.546;9.954;2023-12-14T15:25:39;10.20;99.90
17639;DHT22;8938;53.546;9.954;2023-12-14T15:28:05;10.40;99.90
17639;DHT22;8938;53.546;9.954;2023-12-14T15:30:31;10.40;99.90
17639;DHT22;8938;53.546;9.954;2023-12-14T15:32:57;10.40;99.90
17639;DHT22;8938;53.546;9.954;2023-12-14T15:35:22;10.30;99.90
17639;DHT22;8938;53.546;9.954;2023-12-14T15:37:48;10.20;99.90
17639;DHT22;8938;53.546;9.954;2023-12-14T15:40:13;10.10;99.90
17639;DHT22;8938;53.546;9.954;2023-12-14T15:42:39;9.90;99.90
17639;DHT22;8938;53.546;9.954;2023-12-14T15:45:05;9.90;99.90
17639;DHT22;8938;53.546;9.954;2023-12-14T15:47:30;9.90;99.90
17639;DHT22;8938;53.546;9.954;2023-12-14T15:49:56;9.80;99.90
17639;DHT22;8938;53.546;9.954;2023-12-14T15:52:21;9.70;99.90
17639;DHT22;8938;53.546;9.954;2023-12-14T15:54:47;9.50;99.90